sensor_id;sensor_type;location;lat;lon;timestamp;temperature;humidity
48019;DHT22;33786;48.690;9.562;2024-02-15T00:00:00;8.50;99.90
48019;DHT22;33786;48.690;9.562;2024-02-15T00:02:27;8.60;99.90
48019;DHT22;33786;48.690;9.562;2024-02-15T00:04:54;8.50;99.90
48019;DHT22;33786;48.690;9.562;2024-02-15T00:07:20;8.50;99.90
48019;DHT22;33786;48.690;9.562;2024-02-15T00:09:49;8.50;99.90
48019;DHT22;33786;48.690;9.562;2024-02-15T00:12:16;8.50;99.90
48019;DHT22;33786;48.690;9.562;2024-02-15T00:14:43;8.50;99.90
48019;DHT22;33786;48.690;9.562;2024-02-15T00:17:10;8.40;99.90
48019;DHT22;33786;48.690;9.562;2024-02-15T00:19:38;8.40;99.90
48019;DHT22;33786;48.690;9.562;2024-02-15T00:22:09;8.40;99.90
48019;DHT22;33786;48.690;9.562;2024-02-15T00:24:37;8.40;99.90
48019;DHT22;33786;48.690;9.562;2024-02-15T00:27:05;8.40;99.90
48019;DHT22;33786;48.690;9.562;2024-02-15T00:29:32;8.40;99.90
48019;DHT22;33786;48.690;9.562;2024-02-15T00:32:02;8.40;99.90
48019;DHT22;33786;48.690;9.562;2024-02-15T00:34:30;8.30;99.90
48019;DHT22;33786;48.690;9.562;2024-02-15T00:36:58;8.40;99.90
48019;DHT22;33786;48.690;9.562;2024-02-15T00:39:25;8.40;99.90
48019;DHT22;33786;48.690;9.562;2024-02-15T00:41:51;8.30;99.90
48019;DHT22;33786;48.690;9.562;2024-02-15T00:44:18;8.30;99.90
48019;DHT22;33786;48.690;9.562;2024-02-15T00:46:45;8.40;99.90
48019;DHT22;33786;48.690;9.562;2024-02-15T00:49:13;8.30;99.90
48019;DHT22;33786;48.690;9.562;2024-02-15T00:51:40;8.40;99.90
48019;DHT22;33786;48.690;9.562;2024-02-15T00:54:07;8.40;99.90
48019;DHT22;33786;48.690;9.562;2024-02-15T00:56:34;8.40;99.90
48019;DHT22;33786;48.690;9.562;2024-02-15T00:59:01;8.40;99.90
48019;DHT22;33786;48.690;9.562;2024-02-15T01:01:28;8.40;99.90
48019;DHT22;33786;48.690;9.562;2024-02-15T01:03:55;8.40;99.90
48019;DHT22;33786;48.690;9.562;2024-02-15T01:06:22;8.40;99.90
48019;DHT22;33786;48.690;9.562;2024-02-15T01:08:49;8.40;99.90
48019;DHT22;33786;48.690;9.562;2024-02-15T01:11:16;8.50;99.90
48019;DHT22;33786;48.690;9.562;2024-02-15T01:13:43;8.40;99.90
48019;DHT22;33786;48.690;9.562;2024-02-15T01:16:11;8.40;99.90
48019;DHT22;33786;48.690;9.562;2024-02-15T01:18:38;8.40;99.90
48019;DHT22;33786;48.690;9.562;2024-02-15T01:21:05;8.40;99.90
48019;DHT22;33786;48.690;9.562;2024-02-15T01:23:33;8.40;99.90
48019;DHT22;33786;48.690;9.562;2024-02-15T01:26:04;8.30;99.90
48019;DHT22;33786;48.690;9.562;2024-02-15T01:28:31;8.40;99.90
48019;DHT22;33786;48.690;9.562;2024-02-15T01:30:59;8.30;99.90
48019;DHT22;33786;48.690;9.562;2024-02-15T01:33:26;8.40;99.90
48019;DHT22;33786;48.690;9.562;2024-02-15T01:35:54;8.40;99.90
48019;DHT22;33786;48.690;9.562;2024-02-15T01:38:21;8.20;99.90
48019;DHT22;33786;48.690;9.562;2024-02-15T01:40:48;8.30;99.90
48019;DHT22;33786;48.690;9.562;2024-02-15T01:43:15;8.20;99.90
48019;DHT22;33786;48.690;9.562;2024-02-15T01:45:42;8.20;99.90
48019;DHT22;33786;48.690;9.562;2024-02-15T01:48:10;8.10;99.90
48019;DHT22;33786;48.690;9.562;2024-02-15T01:50:37;8.10;99.90
48019;DHT22;33786;48.690;9.562;2024-02-15T01:53:05;7.90;99.90
48019;DHT22;33786;48.690;9.562;2024-02-15T01:55:34;7.80;99.90
48019;DHT22;33786;48.690;9.562;2024-02-15T01:58:01;7.70;99.90
48019;DHT22;33786;48.690;9.562;2024-02-15T02:00:30;7.70;99.90
48019;DHT22;33786;48.690;9.562;2024-02-15T02:02:57;7.50;99.90
48019;DHT22;33786;48.690;9.562;2024-02-15T02:05:30;7.50;99.90
48019;DHT22;33786;48.690;9.562;2024-02-15T02:07:58;7.40;99.90
48019;DHT22;33786;48.690;9.562;2024-02-15T02:10:28;7.30;99.90
48019;DHT22;33786;48.690;9.562;2024-02-15T02:13:01;7.20;99.90
48019;DHT22;33786;48.690;9.562;2024-02-15T02:15:31;7.20;99.90
48019;DHT22;33786;48.690;9.562;2024-02-15T02:18:00;7.10;99.90
48019;DHT22;33786;48.690;9.562;2024-02-15T02:20:27;7.00;99.90
48019;DHT22;33786;48.690;9.562;2024-02-15T02:23:03;6.90;99.90
48019;DHT22;33786;48.690;9.562;2024-02-15T02:25:34;6.80;99.90
48019;DHT22;33786;48.690;9.562;2024-02-15T02:28:02;6.80;99.90
48019;DHT22;33786;48.690;9.562;2024-02-15T02:30:29;6.80;99.90
48019;DHT22;33786;48.690;9.562;2024-02-15T02:32:59;6.80;99.90
48019;DHT22;33786;48.690;9.562;2024-02-15T02:35:26;6.70;99.90
48019;DHT22;33786;48.690;9.562;2024-02-15T02:37:55;6.50;99.90
48019;DHT22;33786;48.690;9.562;2024-02-15T02:40:22;6.50;99.90
48019;DHT22;33786;48.690;9.562;2024-02-15T02:42:54;6.50;99.90
48019;DHT22;33786;48.690;9.562;2024-02-15T02:45:22;6.50;99.90
48019;DHT22;33786;48.690;9.562;2024-02-15T02:47:50;6.40;99.90
48019;DHT22;33786;48.690;9.562;2024-02-15T02:50:21;6.30;99.90
48019;DHT22;33786;48.690;9.562;2024-02-15T02:52:48;6.30;99.90
48019;DHT22;33786;48.690;9.562;2024-02-15T02:55:15;6.30;99.90
48019;DHT22;33786;48.690;9.562;2024-02-15T02:57:42;6.20;99.90
48019;DHT22;33786;48.690;9.562;2024-02-15T03:00:11;6.20;99.90
48019;DHT22;33786;48.690;9.562;2024-02-15T03:02:40;6.20;99.90
48019;DHT22;33786;48.690;9.562;2024-02-15T03:05:08;6.10;99.90
48019;DHT22;33786;48.690;9.562;2024-02-15T03:07:35;6.00;99.90
48019;DHT22;33786;48.690;9.562;2024-02-15T03:10:04;6.00;99.90
48019;DHT22;33786;48.690;9.562;2024-02-15T03:12:31;5.90;99.90
48019;DHT22;33786;48.690;9.562;2024-02-15T03:14:58;5.80;99.90
48019;DHT22;33786;48.690;9.562;2024-02-15T03:17:25;5.80;99.90
48019;DHT22;33786;48.690;9.562;2024-02-15T03:19:52;5.70;99.90
48019;DHT22;33786;48.690;9.562;2024-02-15T03:22:19;5.70;99.90
48019;DHT22;33786;48.690;9.562;2024-02-15T03:24:46;5.60;99.90
48019;DHT22;33786;48.690;9.562;2024-02-15T03:27:13;5.60;99.90
48019;DHT22;33786;48.690;9.562;2024-02-15T03:29:40;5.50;99.90
48019;DHT22;33786;48.690;9.562;2024-02-15T03:32:07;5.50;99.90
48019;DHT22;33786;48.690;9.562;2024-02-15T03:34:36;5.50;99.90
48019;DHT22;33786;48.690;9.562;2024-02-15T03:37:06;5.50;99.90
48019;DHT22;33786;48.690;9.562;2024-02-15T03:39:33;5.50;99.90
48019;DHT22;33786;48.690;9.562;2024-02-15T03:42:00;5.50;99.90
48019;DHT22;33786;48.690;9.562;2024-02-15T03:44:27;5.50;99.90
48019;DHT22;33786;48.690;9.562;2024-02-15T03:46:54;5.50;99.90
48019;DHT22;33786;48.690;9.562;2024-02-15T03:49:24;5.60;99.90
48019;DHT22;33786;48.690;9.562;2024-02-15T03:51:51;5.50;99.90
48019;DHT22;33786;48.690;9.562;2024-02-15T03:54:18;5.50;99.90
48019;DHT22;33786;48.690;9.562;2024-02-15T03:56:51;5.60;99.90
48019;DHT22;33786;48.690;9.562;2024-02-15T03:59:20;5.60;99.90
48019;DHT22;33786;48.690;9.562;2024-02-15T04:01:54;5.60;99.90
48019;DHT22;33786;48.690;9.562;2024-02-15T04:04:21;5.60;99.90
48019;DHT22;33786;48.690;9.562;2024-02-15T04:06:49;5.60;99.90
48019;DHT22;33786;48.690;9.562;2024-02-15T04:09:16;5.80;99.90
48019;DHT22;33786;48.690;9.562;2024-02-15T04:11:47;5.70;99.90
48019;DHT22;33786;48.690;9.562;2024-02-15T04:14:19;5.80;99.90
48019;DHT22;33786;48.690;9.562;2024-02-15T04:16:46;5.80;99.90
48019;DHT22;33786;48.690;9.562;2024-02-15T04:19:13;5.80;99.90
48019;DHT22;33786;48.690;9.562;2024-02-15T04:21:40;5.70;99.90
48019;DHT22;33786;48.690;9.562;2024-02-15T04:24:07;5.70;99.90
48019;DHT22;33786;48.690;9.562;2024-02-15T04:26:34;5.70;99.90
48019;DHT22;33786;48.690;9.562;2024-02-15T04:29:01;5.60;99.90
48019;DHT22;33786;48.690;9.562;2024-02-15T04:31:33;5.50;99.90
48019;DHT22;33786;48.690;9.562;2024-02-15T04:34:03;5.40;99.90
48019;DHT22;33786;48.690;9.562;2024-02-15T04:36:31;5.40;99.90
48019;DHT22;33786;48.690;9.562;2024-02-15T04:39:00;5.30;99.90
48019;DHT22;33786;48.690;9.562;2024-02-15T04:41:31;5.20;99.90
48019;DHT22;33786;48.690;9.562;2024-02-15T04:43:58;5.20;99.90
48019;DHT22;33786;48.690;9.562;2024-02-15T04:46:25;5.10;99.90
48019;DHT22;33786;48.690;9.562;2024-02-15T04:48:51;5.10;99.90
48019;DHT22;33786;48.690;9.562;2024-02-15T04:51:18;5.10;99.90
48019;DHT22;33786;48.690;9.562;2024-02-15T04:53:47;5.00;99.90
48019;DHT22;33786;48.690;9.562;2024-02-15T04:56:14;4.90;99.90
48019;DHT22;33786;48.690;9.562;2024-02-15T04:58:43;4.90;99.90
48019;DHT22;33786;48.690;9.562;2024-02-15T05:01:15;4.80;99.90
48019;DHT22;33786;48.690;9.562;2024-02-15T05:03:45;4.90;99.90
48019;DHT22;33786;48.690;9.562;2024-02-15T05:06:12;4.80;99.90
48019;DHT22;33786;48.690;9.562;2024-02-15T05:08:40;4.70;99.90
48019;DHT22;33786;48.690;9.562;2024-02-15T05:11:13;4.70;99.90
48019;DHT22;33786;48.690;9.562;2024-02-15T05:13:49;4.70;99.90
48019;DHT22;33786;48.690;9.562;2024-02-15T05:16:18;4.80;99.90
48019;DHT22;33786;48.690;9.562;2024-02-15T05:18:46;4.80;99.90
48019;DHT22;33786;48.690;9.562;2024-02-15T05:21:13;4.80;99.90
48019;DHT22;33786;48.690;9.562;2024-02-15T05:23:40;4.70;99.90
48019;DHT22;33786;48.690;9.562;2024-02-15T05:26:08;4.70;99.90
48019;DHT22;33786;48.690;9.562;2024-02-15T05:28:36;4.60;99.90
48019;DHT22;33786;48.690;9.562;2024-02-15T05:31:12;4.60;99.90
48019;DHT22;33786;48.690;9.562;2024-02-15T05:33:44;4.60;99.90
48019;DHT22;33786;48.690;9.562;2024-02-15T05:36:12;4.60;99.90
48019;DHT22;33786;48.690;9.562;2024-02-15T05:38:40;4.50;99.90
48019;DHT22;33786;48.690;9.562;2024-02-15T05:41:07;4.50;99.90
48019;DHT22;33786;48.690;9.562;2024-02-15T05:43:34;4.50;99.90
48019;DHT22;33786;48.690;9.562;2024-02-15T05:46:04;4.50;99.90
48019;DHT22;33786;48.690;9.562;2024-02-15T05:48:33;4.50;99.90
48019;DHT22;33786;48.690;9.562;2024-02-15T05:51:04;4.40;99.90
48019;DHT22;33786;48.690;9.562;2024-02-15T05:53:32;4.40;99.90
48019;DHT22;33786;48.690;9.562;2024-02-15T05:56:04;4.40;99.90
48019;DHT22;33786;48.690;9.562;2024-02-15T05:58:31;4.40;99.90
48019;DHT22;33786;48.690;9.562;2024-02-15T06:01:03;4.40;99.90
48019;DHT22;33786;48.690;9.562;2024-02-15T06:03:33;4.30;99.90
48019;DHT22;33786;48.690;9.562;2024-02-15T06:06:01;4.30;99.90
48019;DHT22;33786;48.690;9.562;2024-02-15T06:08:29;4.30;99.90
48019;DHT22;33786;48.690;9.562;2024-02-15T06:10:59;4.30;99.90
48019;DHT22;33786;48.690;9.562;2024-02-15T06:13:26;4.20;99.90
48019;DHT22;33786;48.690;9.562;2024-02-15T06:15:53;4.20;99.90
48019;DHT22;33786;48.690;9.562;2024-02-15T06:18:21;4.20;99.90
48019;DHT22;33786;48.690;9.562;2024-02-15T06:20:51;4.20;99.90
48019;DHT22;33786;48.690;9.562;2024-02-15T06:23:22;4.20;99.90
48019;DHT22;33786;48.690;9.562;2024-02-15T06:25:51;4.20;99.90
48019;DHT22;33786;48.690;9.562;2024-02-15T06:28:22;4.30;99.90
48019;DHT22;33786;48.690;9.562;2024-02-15T06:31:09;4.30;99.90
48019;DHT22;33786;48.690;9.562;2024-02-15T06:33:56;4.20;99.90
48019;DHT22;33786;48.690;9.562;2024-02-15T06:36:51;4.30;99.90
48019;DHT22;33786;48.690;9.562;2024-02-15T06:39:39;4.30;99.90
48019;DHT22;33786;48.690;9.562;2024-02-15T06:42:14;4.30;99.90
48019;DHT22;33786;48.690;9.562;2024-02-15T06:44:47;4.30;99.90
48019;DHT22;33786;48.690;9.562;2024-02-15T06:47:14;4.30;99.90
48019;DHT22;33786;48.690;9.562;2024-02-15T06:49:47;4.40;99.90
48019;DHT22;33786;48.690;9.562;2024-02-15T06:52:18;4.40;99.90
48019;DHT22;33786;48.690;9.562;2024-02-15T06:54:45;4.50;99.90
48019;DHT22;33786;48.690;9.562;2024-02-15T06:57:12;4.50;99.90
48019;DHT22;33786;48.690;9.562;2024-02-15T06:59:39;4.60;99.90
48019;DHT22;33786;48.690;9.562;2024-02-15T07:02:06;4.60;99.90
48019;DHT22;33786;48.690;9.562;2024-02-15T07:04:34;4.60;99.90
48019;DHT22;33786;48.690;9.562;2024-02-15T07:07:01;4.70;99.90
48019;DHT22;33786;48.690;9.562;2024-02-15T07:09:30;4.80;99.90
48019;DHT22;33786;48.690;9.562;2024-02-15T07:11:57;4.90;99.90
48019;DHT22;33786;48.690;9.562;2024-02-15T07:14:25;5.20;99.90
48019;DHT22;33786;48.690;9.562;2024-02-15T07:16:55;5.40;99.90
48019;DHT22;33786;48.690;9.562;2024-02-15T07:19:25;5.60;99.90
48019;DHT22;33786;48.690;9.562;2024-02-15T07:21:54;5.70;99.90
48019;DHT22;33786;48.690;9.562;2024-02-15T07:24:23;5.60;99.90
48019;DHT22;33786;48.690;9.562;2024-02-15T07:26:54;5.70;99.90
48019;DHT22;33786;48.690;9.562;2024-02-15T07:29:22;5.90;99.90
48019;DHT22;33786;48.690;9.562;2024-02-15T07:31:50;6.50;99.90
48019;DHT22;33786;48.690;9.562;2024-02-15T07:34:17;7.30;99.90
48019;DHT22;33786;48.690;9.562;2024-02-15T07:36:44;8.20;99.90
48019;DHT22;33786;48.690;9.562;2024-02-15T07:39:12;9.60;99.90
48019;DHT22;33786;48.690;9.562;2024-02-15T07:41:45;11.30;99.90
48019;DHT22;33786;48.690;9.562;2024-02-15T07:44:12;13.50;99.30
48019;DHT22;33786;48.690;9.562;2024-02-15T07:46:41;15.10;96.60
48019;DHT22;33786;48.690;9.562;2024-02-15T07:49:08;15.90;94.60
48019;DHT22;33786;48.690;9.562;2024-02-15T07:51:35;15.50;94.30
48019;DHT22;33786;48.690;9.562;2024-02-15T07:54:02;15.40;94.30
48019;DHT22;33786;48.690;9.562;2024-02-15T07:56:30;15.80;94.10
48019;DHT22;33786;48.690;9.562;2024-02-15T07:58:57;16.10;94.10
48019;DHT22;33786;48.690;9.562;2024-02-15T08:01:23;17.30;92.60
48019;DHT22;33786;48.690;9.562;2024-02-15T08:03:52;18.60;90.90
48019;DHT22;33786;48.690;9.562;2024-02-15T08:06:21;19.20;89.80
48019;DHT22;33786;48.690;9.562;2024-02-15T08:08:52;20.20;86.60
48019;DHT22;33786;48.690;9.562;2024-02-15T08:11:19;21.30;84.50
48019;DHT22;33786;48.690;9.562;2024-02-15T08:13:47;21.20;84.10
48019;DHT22;33786;48.690;9.562;2024-02-15T08:16:17;20.80;84.30
48019;DHT22;33786;48.690;9.562;2024-02-15T08:18:44;21.10;83.60
48019;DHT22;33786;48.690;9.562;2024-02-15T08:21:13;20.10;85.10
48019;DHT22;33786;48.690;9.562;2024-02-15T08:23:41;19.20;87.60
48019;DHT22;33786;48.690;9.562;2024-02-15T08:26:08;18.70;88.10
48019;DHT22;33786;48.690;9.562;2024-02-15T08:28:38;18.10;90.00
48019;DHT22;33786;48.690;9.562;2024-02-15T08:31:05;17.90;90.50
48019;DHT22;33786;48.690;9.562;2024-02-15T08:33:34;18.40;90.00
48019;DHT22;33786;48.690;9.562;2024-02-15T08:36:01;18.80;89.20
48019;DHT22;33786;48.690;9.562;2024-02-15T08:38:29;19.80;88.10
48019;DHT22;33786;48.690;9.562;2024-02-15T08:40:56;20.70;85.60
48019;DHT22;33786;48.690;9.562;2024-02-15T08:43:22;20.60;84.90
48019;DHT22;33786;48.690;9.562;2024-02-15T08:45:50;21.00;84.30
48019;DHT22;33786;48.690;9.562;2024-02-15T08:48:17;22.00;83.40
48019;DHT22;33786;48.690;9.562;2024-02-15T08:50:44;23.10;80.90
48019;DHT22;33786;48.690;9.562;2024-02-15T08:53:12;23.60;79.10
48019;DHT22;33786;48.690;9.562;2024-02-15T08:55:41;23.60;79.80
48019;DHT22;33786;48.690;9.562;2024-02-15T08:58:08;22.90;80.50
48019;DHT22;33786;48.690;9.562;2024-02-15T09:00:36;22.50;80.70
48019;DHT22;33786;48.690;9.562;2024-02-15T09:03:07;22.20;81.50
48019;DHT22;33786;48.690;9.562;2024-02-15T09:05:35;22.10;81.50
48019;DHT22;33786;48.690;9.562;2024-02-15T09:08:02;22.70;80.90
48019;DHT22;33786;48.690;9.562;2024-02-15T09:10:31;23.20;79.90
48019;DHT22;33786;48.690;9.562;2024-02-15T09:12:58;23.00;79.90
48019;DHT22;33786;48.690;9.562;2024-02-15T09:15:25;23.60;79.30
48019;DHT22;33786;48.690;9.562;2024-02-15T09:17:52;23.50;79.00
48019;DHT22;33786;48.690;9.562;2024-02-15T09:20:21;23.30;79.20
48019;DHT22;33786;48.690;9.562;2024-02-15T09:22:50;22.60;79.90
48019;DHT22;33786;48.690;9.562;2024-02-15T09:25:18;22.30;80.60
48019;DHT22;33786;48.690;9.562;2024-02-15T09:27:45;22.20;80.90
48019;DHT22;33786;48.690;9.562;2024-02-15T09:30:16;22.60;80.40
48019;DHT22;33786;48.690;9.562;2024-02-15T09:32:44;22.70;80.50
48019;DHT22;33786;48.690;9.562;2024-02-15T09:35:12;23.00;79.90
48019;DHT22;33786;48.690;9.562;2024-02-15T09:37:45;23.00;79.50
48019;DHT22;33786;48.690;9.562;2024-02-15T09:40:13;23.00;80.00
48019;DHT22;33786;48.690;9.562;2024-02-15T09:42:43;23.90;77.90
48019;DHT22;33786;48.690;9.562;2024-02-15T09:45:12;23.40;78.00
48019;DHT22;33786;48.690;9.562;2024-02-15T09:47:44;24.20;77.30
48019;DHT22;33786;48.690;9.562;2024-02-15T09:50:13;24.20;77.20
48019;DHT22;33786;48.690;9.562;2024-02-15T09:52:44;24.20;77.30
48019;DHT22;33786;48.690;9.562;2024-02-15T09:55:12;24.90;75.00
48019;DHT22;33786;48.690;9.562;2024-02-15T09:57:42;25.00;75.60
48019;DHT22;33786;48.690;9.562;2024-02-15T10:00:11;26.00;73.50
48019;DHT22;33786;48.690;9.562;2024-02-15T10:02:49;26.90;72.90
48019;DHT22;33786;48.690;9.562;2024-02-15T10:05:17;27.80;70.70
48019;DHT22;33786;48.690;9.562;2024-02-15T10:07:45;27.60;70.20
48019;DHT22;33786;48.690;9.562;2024-02-15T10:10:21;27.40;70.20
48019;DHT22;33786;48.690;9.562;2024-02-15T10:12:51;28.10;69.20
48019;DHT22;33786;48.690;9.562;2024-02-15T10:18:01;28.50;67.40
48019;DHT22;33786;48.690;9.562;2024-02-15T10:20:28;28.70;67.30
48019;DHT22;33786;48.690;9.562;2024-02-15T10:25:28;27.70;67.40
48019;DHT22;33786;48.690;9.562;2024-02-15T10:28:05;28.20;66.00
48019;DHT22;33786;48.690;9.562;2024-02-15T10:30:35;27.50;66.10
48019;DHT22;33786;48.690;9.562;2024-02-15T10:33:03;26.00;68.30
48019;DHT22;33786;48.690;9.562;2024-02-15T10:35:31;25.30;68.80
48019;DHT22;33786;48.690;9.562;2024-02-15T10:38:09;27.00;67.00
48019;DHT22;33786;48.690;9.562;2024-02-15T10:40:38;27.50;66.40
48019;DHT22;33786;48.690;9.562;2024-02-15T10:43:09;27.80;65.50
48019;DHT22;33786;48.690;9.562;2024-02-15T10:45:40;28.00;65.10
48019;DHT22;33786;48.690;9.562;2024-02-15T10:48:09;28.70;63.10
48019;DHT22;33786;48.690;9.562;2024-02-15T10:50:39;28.50;62.80
48019;DHT22;33786;48.690;9.562;2024-02-15T10:53:15;28.60;63.30
48019;DHT22;33786;48.690;9.562;2024-02-15T10:56:26;28.20;64.00
48019;DHT22;33786;48.690;9.562;2024-02-15T10:59:10;27.90;63.60
48019;DHT22;33786;48.690;9.562;2024-02-15T11:01:41;27.70;62.00
48019;DHT22;33786;48.690;9.562;2024-02-15T11:04:14;26.50;64.00
48019;DHT22;33786;48.690;9.562;2024-02-15T11:06:43;27.10;64.30
48019;DHT22;33786;48.690;9.562;2024-02-15T11:09:11;27.60;63.20
48019;DHT22;33786;48.690;9.562;2024-02-15T11:11:41;26.40;63.90
48019;DHT22;33786;48.690;9.562;2024-02-15T11:14:30;25.80;64.80
48019;DHT22;33786;48.690;9.562;2024-02-15T11:16:59;24.80;66.10
48019;DHT22;33786;48.690;9.562;2024-02-15T11:22:07;26.80;64.50
48019;DHT22;33786;48.690;9.562;2024-02-15T11:24:36;26.70;64.30
48019;DHT22;33786;48.690;9.562;2024-02-15T11:27:04;26.50;64.50
48019;DHT22;33786;48.690;9.562;2024-02-15T11:29:54;26.20;64.80
48019;DHT22;33786;48.690;9.562;2024-02-15T11:32:35;25.20;66.50
48019;DHT22;33786;48.690;9.562;2024-02-15T11:35:06;25.70;65.20
48019;DHT22;33786;48.690;9.562;2024-02-15T11:42:51;25.00;67.20
48019;DHT22;33786;48.690;9.562;2024-02-15T11:45:20;26.20;66.40
48019;DHT22;33786;48.690;9.562;2024-02-15T11:47:50;26.00;64.90
48019;DHT22;33786;48.690;9.562;2024-02-15T11:50:22;25.80;65.90
48019;DHT22;33786;48.690;9.562;2024-02-15T11:52:51;25.40;66.50
48019;DHT22;33786;48.690;9.562;2024-02-15T11:55:22;25.00;66.20
48019;DHT22;33786;48.690;9.562;2024-02-15T11:57:58;24.40;67.40
48019;DHT22;33786;48.690;9.562;2024-02-15T12:00:34;24.10;67.60
48019;DHT22;33786;48.690;9.562;2024-02-15T12:03:21;24.20;67.70
48019;DHT22;33786;48.690;9.562;2024-02-15T12:06:18;23.20;69.30
48019;DHT22;33786;48.690;9.562;2024-02-15T12:09:03;23.60;69.30
48019;DHT22;33786;48.690;9.562;2024-02-15T12:11:57;23.80;68.10
48019;DHT22;33786;48.690;9.562;2024-02-15T12:14:43;23.20;70.30
48019;DHT22;33786;48.690;9.562;2024-02-15T12:17:28;23.30;70.20
48019;DHT22;33786;48.690;9.562;2024-02-15T12:20:14;23.10;70.30
48019;DHT22;33786;48.690;9.562;2024-02-15T12:22:47;23.40;70.20
48019;DHT22;33786;48.690;9.562;2024-02-15T12:25:16;22.70;71.10
48019;DHT22;33786;48.690;9.562;2024-02-15T12:27:44;22.40;71.40
48019;DHT22;33786;48.690;9.562;2024-02-15T12:30:15;21.90;72.50
48019;DHT22;33786;48.690;9.562;2024-02-15T12:32:43;21.70;73.80
48019;DHT22;33786;48.690;9.562;2024-02-15T12:35:15;21.10;74.40
48019;DHT22;33786;48.690;9.562;2024-02-15T12:38:02;20.40;76.40
48019;DHT22;33786;48.690;9.562;2024-02-15T12:40:33;20.20;76.50
48019;DHT22;33786;48.690;9.562;2024-02-15T12:43:01;20.10;76.90
48019;DHT22;33786;48.690;9.562;2024-02-15T12:45:32;20.00;77.10
48019;DHT22;33786;48.690;9.562;2024-02-15T12:48:04;19.60;77.90
48019;DHT22;33786;48.690;9.562;2024-02-15T12:50:33;19.40;78.90
48019;DHT22;33786;48.690;9.562;2024-02-15T12:53:01;19.30;78.80
48019;DHT22;33786;48.690;9.562;2024-02-15T12:55:34;19.10;79.40
48019;DHT22;33786;48.690;9.562;2024-02-15T12:58:03;18.70;80.10
48019;DHT22;33786;48.690;9.562;2024-02-15T13:00:31;18.80;80.80
48019;DHT22;33786;48.690;9.562;2024-02-15T13:03:03;18.90;80.10
48019;DHT22;33786;48.690;9.562;2024-02-15T13:05:31;18.50;80.30
48019;DHT22;33786;48.690;9.562;2024-02-15T13:07:59;18.40;81.20
48019;DHT22;33786;48.690;9.562;2024-02-15T13:10:27;18.40;81.60
48019;DHT22;33786;48.690;9.562;2024-02-15T13:12:55;18.40;81.40
48019;DHT22;33786;48.690;9.562;2024-02-15T13:15:23;18.20;82.20
48019;DHT22;33786;48.690;9.562;2024-02-15T13:17:54;17.90;83.70
48019;DHT22;33786;48.690;9.562;2024-02-15T13:20:25;18.10;83.30
48019;DHT22;33786;48.690;9.562;2024-02-15T13:23:00;18.20;82.80
48019;DHT22;33786;48.690;9.562;2024-02-15T13:25:29;18.10;82.90
48019;DHT22;33786;48.690;9.562;2024-02-15T13:27:56;18.20;83.00
48019;DHT22;33786;48.690;9.562;2024-02-15T13:30:26;18.10;83.10
48019;DHT22;33786;48.690;9.562;2024-02-15T13:32:57;18.00;83.00
48019;DHT22;33786;48.690;9.562;2024-02-15T13:35:25;18.00;84.00
48019;DHT22;33786;48.690;9.562;2024-02-15T13:37:55;17.90;83.60
48019;DHT22;33786;48.690;9.562;2024-02-15T13:40:25;17.80;84.50
48019;DHT22;33786;48.690;9.562;2024-02-15T13:42:58;17.90;85.00
48019;DHT22;33786;48.690;9.562;2024-02-15T13:45:40;17.90;84.50
48019;DHT22;33786;48.690;9.562;2024-02-15T13:48:07;17.80;84.30
48019;DHT22;33786;48.690;9.562;2024-02-15T13:50:36;17.80;84.50
48019;DHT22;33786;48.690;9.562;2024-02-15T13:53:04;17.80;84.80
48019;DHT22;33786;48.690;9.562;2024-02-15T13:55:31;18.00;85.20
48019;DHT22;33786;48.690;9.562;2024-02-15T13:57:59;18.10;85.00
48019;DHT22;33786;48.690;9.562;2024-02-15T14:00:27;18.10;84.40
48019;DHT22;33786;48.690;9.562;2024-02-15T14:02:58;17.90;85.60
48019;DHT22;33786;48.690;9.562;2024-02-15T14:05:26;17.80;85.20
48019;DHT22;33786;48.690;9.562;2024-02-15T14:08:01;17.70;85.70
48019;DHT22;33786;48.690;9.562;2024-02-15T14:10:29;17.60;86.40
48019;DHT22;33786;48.690;9.562;2024-02-15T14:12:57;17.50;87.70
48019;DHT22;33786;48.690;9.562;2024-02-15T14:15:32;17.40;87.20
48019;DHT22;33786;48.690;9.562;2024-02-15T14:18:08;17.50;87.30
48019;DHT22;33786;48.690;9.562;2024-02-15T14:20:41;17.50;87.30
48019;DHT22;33786;48.690;9.562;2024-02-15T14:23:09;17.40;87.80
48019;DHT22;33786;48.690;9.562;2024-02-15T14:25:41;17.30;87.90
48019;DHT22;33786;48.690;9.562;2024-02-15T14:28:08;17.30;88.30
48019;DHT22;33786;48.690;9.562;2024-02-15T14:30:36;17.30;88.30
48019;DHT22;33786;48.690;9.562;2024-02-15T14:33:22;17.30;88.40
48019;DHT22;33786;48.690;9.562;2024-02-15T14:35:50;17.40;88.80
48019;DHT22;33786;48.690;9.562;2024-02-15T14:38:20;17.50;88.10
48019;DHT22;33786;48.690;9.562;2024-02-15T14:40:50;17.40;88.70
48019;DHT22;33786;48.690;9.562;2024-02-15T14:43:23;17.40;88.50
48019;DHT22;33786;48.690;9.562;2024-02-15T14:45:51;17.50;88.70
48019;DHT22;33786;48.690;9.562;2024-02-15T14:48:19;17.50;88.40
48019;DHT22;33786;48.690;9.562;2024-02-15T14:50:47;17.40;88.50
48019;DHT22;33786;48.690;9.562;2024-02-15T14:53:18;17.40;88.50
48019;DHT22;33786;48.690;9.562;2024-02-15T14:55:45;17.30;89.40
48019;DHT22;33786;48.690;9.562;2024-02-15T14:58:16;17.20;89.00
48019;DHT22;33786;48.690;9.562;2024-02-15T15:00:46;17.10;89.40
48019;DHT22;33786;48.690;9.562;2024-02-15T15:03:15;16.90;90.00
48019;DHT22;33786;48.690;9.562;2024-02-15T15:05:43;17.00;90.00
48019;DHT22;33786;48.690;9.562;2024-02-15T15:08:29;17.00;90.10
48019;DHT22;33786;48.690;9.562;2024-02-15T15:11:14;16.90;90.30
48019;DHT22;33786;48.690;9.562;2024-02-15T15:14:00;16.90;90.40
48019;DHT22;33786;48.690;9.562;2024-02-15T15:16:28;16.80;90.40
48019;DHT22;33786;48.690;9.562;2024-02-15T15:18:56;16.70;90.60
48019;DHT22;33786;48.690;9.562;2024-02-15T15:21:23;16.60;90.50
48019;DHT22;33786;48.690;9.562;2024-02-15T15:23:52;16.50;90.70
48019;DHT22;33786;48.690;9.562;2024-02-15T15:26:20;16.60;90.70
48019;DHT22;33786;48.690;9.562;2024-02-15T15:28:48;16.60;90.80
48019;DHT22;33786;48.690;9.562;2024-02-15T15:31:15;16.60;90.60
48019;DHT22;33786;48.690;9.562;2024-02-15T15:33:43;16.70;90.60
48019;DHT22;33786;48.690;9.562;2024-02-15T15:36:10;16.60;90.70
48019;DHT22;33786;48.690;9.562;2024-02-15T15:38:38;16.60;90.70
48019;DHT22;33786;48.690;9.562;2024-02-15T15:41:07;16.60;90.60
48019;DHT22;33786;48.690;9.562;2024-02-15T15:43:36;16.60;90.60
48019;DHT22;33786;48.690;9.562;2024-02-15T15:46:04;16.60;90.70
48019;DHT22;33786;48.690;9.562;2024-02-15T15:48:31;16.60;90.80
48019;DHT22;33786;48.690;9.562;2024-02-15T15:51:00;16.60;90.80
48019;DHT22;33786;48.690;9.562;2024-02-15T15:53:31;16.40;90.80
48019;DHT22;33786;48.690;9.562;2024-02-15T15:56:00;16.40;91.00
48019;DHT22;33786;48.690;9.562;2024-02-15T15:58:28;16.30;91.00
48019;DHT22;33786;48.690;9.562;2024-02-15T16:00:54;16.20;91.20
48019;DHT22;33786;48.690;9.562;2024-02-15T16:03:22;16.20;91.20
48019;DHT22;33786;48.690;9.562;2024-02-15T16:05:50;16.10;91.30